createdAt,value
2023-03-13T00:01:14.664Z,55.50
2023-03-13T00:03:43.057Z,56.30
2023-03-13T00:06:11.652Z,55.80
2023-03-13T00:08:40.035Z,56.30
2023-03-13T00:11:10.162Z,56.40
2023-03-13T00:13:38.909Z,55.80
2023-03-13T00:16:09.265Z,54.90
2023-03-13T00:18:38.973Z,54.80
2023-03-13T00:21:09.194Z,54.20
2023-03-13T00:23:38.654Z,53.50
2023-03-13T00:26:08.678Z,52.50
2023-03-13T00:28:38.349Z,51.20
2023-03-13T00:31:08.127Z,51.50
2023-03-13T00:33:39.009Z,52.00
2023-03-13T00:36:09.738Z,51.90
2023-03-13T00:38:37.842Z,51.40
2023-03-13T00:41:08.451Z,52.40
2023-03-13T00:43:36.783Z,52.20
2023-03-13T00:46:05.005Z,52.70
2023-03-13T00:48:33.639Z,54.20
2023-03-13T00:51:04.023Z,53.90
2023-03-13T00:53:32.703Z,54.00
2023-03-13T00:56:02.802Z,54.20
2023-03-13T00:58:32.732Z,53.40
2023-03-13T01:01:08.910Z,52.60
2023-03-13T01:03:38.073Z,52.20
2023-03-13T01:06:09.782Z,52.60
2023-03-13T01:08:37.977Z,51.70
2023-03-13T01:11:08.464Z,50.80
2023-03-13T01:13:37.103Z,50.60
2023-03-13T01:16:06.691Z,50.60
2023-03-13T01:18:35.091Z,50.80
2023-03-13T01:21:03.472Z,50.40
2023-03-13T01:23:32.896Z,50.40
2023-03-13T01:26:01.180Z,51.00
2023-03-13T01:28:29.326Z,52.40
2023-03-13T01:30:57.417Z,51.40
2023-03-13T01:33:25.507Z,51.10
2023-03-13T01:35:53.975Z,51.70
2023-03-13T01:38:22.024Z,50.90
2023-03-13T01:40:51.485Z,51.20
2023-03-13T01:43:26.783Z,51.50
2023-03-13T01:46:00.527Z,51.40
2023-03-13T01:48:35.262Z,51.50
2023-03-13T01:51:06.569Z,51.50
2023-03-13T01:53:37.930Z,51.60
2023-03-13T01:56:11.110Z,51.50
2023-03-13T01:58:39.488Z,51.40
2023-03-13T02:01:07.902Z,51.60
2023-03-13T02:03:38.167Z,50.40
2023-03-13T02:06:07.974Z,50.90
2023-03-13T02:08:39.506Z,51.10
2023-03-13T02:11:20.174Z,50.50
2023-03-13T02:13:50.998Z,51.50
2023-03-13T02:16:20.324Z,51.50
2023-03-13T02:18:49.838Z,51.60
2023-03-13T02:21:25.986Z,53.40
2023-03-13T02:23:59.946Z,53.90
2023-03-13T02:26:29.404Z,53.80
2023-03-13T02:28:57.438Z,54.20
2023-03-13T02:31:25.798Z,53.40
2023-03-13T02:33:54.322Z,54.20
2023-03-13T02:36:23.330Z,54.30
2023-03-13T02:38:57.683Z,54.80
2023-03-13T02:41:27.039Z,54.60
2023-03-13T02:43:56.472Z,54.90
2023-03-13T02:46:24.697Z,55.10
2023-03-13T02:48:54.665Z,56.00
2023-03-13T02:51:29.436Z,55.60
2023-03-13T02:54:01.571Z,58.70
2023-03-13T02:56:33.072Z,59.80
2023-03-13T02:59:02.540Z,62.90
2023-03-13T03:01:30.706Z,66.10
2023-03-13T03:03:58.803Z,64.20
2023-03-13T03:06:26.888Z,64.90
2023-03-13T03:08:54.959Z,66.20
2023-03-13T03:11:23.145Z,67.10
2023-03-13T03:13:51.188Z,68.30
2023-03-13T03:16:20.796Z,67.40
2023-03-13T03:18:49.031Z,68.70
2023-03-13T03:21:17.090Z,68.60
2023-03-13T03:23:45.141Z,69.20
2023-03-13T03:26:13.231Z,69.60
2023-03-13T03:28:41.310Z,70.30
2023-03-13T03:31:11.305Z,70.00
2023-03-13T03:33:41.772Z,69.40
2023-03-13T03:36:12.212Z,72.50
2023-03-13T03:38:40.758Z,71.60
2023-03-13T03:41:09.636Z,70.80
2023-03-13T03:43:38.334Z,72.10
2023-03-13T03:46:07.208Z,71.60
2023-03-13T03:48:35.540Z,72.30
2023-03-13T03:51:05.374Z,67.60
2023-03-13T03:53:33.547Z,70.40
2023-03-13T03:56:03.474Z,69.80
2023-03-13T03:58:31.545Z,71.10
2023-03-13T04:00:59.862Z,69.40
2023-03-13T04:03:28.323Z,68.50
2023-03-13T04:05:56.479Z,69.10
2023-03-13T04:08:26.630Z,69.90
2023-03-13T04:10:54.727Z,69.30
2023-03-13T04:13:22.838Z,69.50
2023-03-13T04:15:50.914Z,69.90
2023-03-13T04:18:18.974Z,73.10
2023-03-13T04:20:47.076Z,72.70
2023-03-13T04:23:15.174Z,73.40
2023-03-13T04:25:44.647Z,73.90
2023-03-13T04:28:12.693Z,73.80
2023-03-13T04:30:40.789Z,74.80
2023-03-13T04:33:08.961Z,74.70
2023-03-13T04:35:37.149Z,74.90
2023-03-13T04:38:05.300Z,73.50
2023-03-13T04:40:33.516Z,75.00
2023-03-13T04:43:03.003Z,73.20
2023-03-13T04:45:31.066Z,73.10
2023-03-13T04:47:59.174Z,73.60
2023-03-13T04:50:27.286Z,72.90
2023-03-13T04:52:55.369Z,72.60
2023-03-13T04:55:23.425Z,72.80
2023-03-13T04:57:51.539Z,72.30
2023-03-13T05:00:21.669Z,72.40
2023-03-13T05:02:49.751Z,72.70
2023-03-13T05:05:18.094Z,73.10
2023-03-13T05:07:46.178Z,74.10
2023-03-13T05:10:14.216Z,74.30
2023-03-13T05:12:42.288Z,74.50
2023-03-13T05:15:11.029Z,74.50
2023-03-13T05:17:40.505Z,74.60
2023-03-13T05:20:11.354Z,75.00
2023-03-13T05:22:39.521Z,74.90
2023-03-13T05:25:07.986Z,76.20
2023-03-13T05:27:36.059Z,75.60
2023-03-13T05:30:04.293Z,75.80
2023-03-13T05:32:32.458Z,76.10
2023-03-13T05:35:01.997Z,76.20
2023-03-13T05:37:30.153Z,76.00
2023-03-13T05:39:58.262Z,75.60
2023-03-13T05:42:26.911Z,75.00
2023-03-13T05:44:55.018Z,75.20
2023-03-13T05:47:23.491Z,75.50
2023-03-13T05:49:51.540Z,74.90
2023-03-13T05:52:21.008Z,78.10
2023-03-13T05:54:49.145Z,77.30
2023-03-13T05:57:17.264Z,77.50
2023-03-13T05:59:45.401Z,76.50
2023-03-13T06:02:13.494Z,76.40
2023-03-13T06:04:41.957Z,74.40
2023-03-13T06:07:10.165Z,75.50
2023-03-13T06:09:40.995Z,75.70
2023-03-13T06:12:10.132Z,75.40
2023-03-13T06:14:38.920Z,74.70
2023-03-13T06:17:07.452Z,73.10
2023-03-13T06:19:35.524Z,73.00
2023-03-13T06:22:03.595Z,72.70
2023-03-13T06:24:31.891Z,70.80
2023-03-13T06:27:01.389Z,71.30
2023-03-13T06:29:29.448Z,71.90
2023-03-13T06:31:57.658Z,70.90
2023-03-13T06:34:25.887Z,70.90
2023-03-13T06:36:53.989Z,71.90
2023-03-13T06:39:22.133Z,72.00
2023-03-13T06:41:50.209Z,73.10
2023-03-13T06:44:19.764Z,73.80
2023-03-13T06:46:47.951Z,73.20
2023-03-13T06:49:16.068Z,73.00
2023-03-13T06:51:44.149Z,73.70
2023-03-13T06:54:12.992Z,74.50
2023-03-13T06:56:43.937Z,74.50
2023-03-13T06:59:12.149Z,74.80
2023-03-13T07:01:41.536Z,74.80
2023-03-13T07:04:13.066Z,74.70
2023-03-13T07:06:41.688Z,75.60
2023-03-13T07:09:10.737Z,76.10
2023-03-13T07:11:38.983Z,75.70
2023-03-13T07:14:16.342Z,75.80
2023-03-13T07:16:47.201Z,74.80
2023-03-13T07:19:15.767Z,75.60
2023-03-13T07:21:44.190Z,76.00
2023-03-13T07:26:51.200Z,83.40
2023-03-13T07:29:22.540Z,80.80
2023-03-13T07:31:52.384Z,80.20
2023-03-13T07:34:20.556Z,80.10
2023-03-13T07:36:48.616Z,79.00
2023-03-13T07:39:16.735Z,79.10
2023-03-13T07:41:44.833Z,78.50
2023-03-13T07:44:12.879Z,79.50
2023-03-13T07:46:41.029Z,79.20
2023-03-13T07:49:10.502Z,75.70
2023-03-13T07:51:43.814Z,76.20
2023-03-13T07:54:12.257Z,77.50
2023-03-13T07:56:41.508Z,78.00
2023-03-13T07:59:10.071Z,77.50
2023-03-13T08:01:38.132Z,77.10
2023-03-13T08:04:06.584Z,73.40
2023-03-13T08:06:36.919Z,75.50
2023-03-13T08:09:05.621Z,75.00
2023-03-13T08:11:34.155Z,73.10
2023-03-13T08:14:02.314Z,75.20
2023-03-13T08:16:32.316Z,74.20
2023-03-13T08:19:00.925Z,76.20
2023-03-13T08:21:30.482Z,73.40
2023-03-13T08:24:02.533Z,74.70
2023-03-13T08:26:31.937Z,73.40
2023-03-13T08:29:01.719Z,73.30
2023-03-13T08:31:32.076Z,72.80
2023-03-13T08:34:00.444Z,73.40
2023-03-13T08:36:30.189Z,73.80
2023-03-13T08:39:02.090Z,71.70
2023-03-13T08:41:33.898Z,71.30
2023-03-13T08:44:02.026Z,53.30
2023-03-13T08:46:31.066Z,52.20
2023-03-13T08:48:59.476Z,51.80
2023-03-13T08:51:29.148Z,49.40
2023-03-13T08:53:57.971Z,48.90
2023-03-13T08:56:30.469Z,47.80
2023-03-13T08:59:00.845Z,47.60
2023-03-13T09:01:30.977Z,47.70
2023-03-13T09:04:03.520Z,47.30
2023-03-13T09:06:32.533Z,46.90
2023-03-13T09:09:00.687Z,47.20
2023-03-13T09:11:30.299Z,45.30
2023-03-13T09:13:59.788Z,44.30
2023-03-13T09:16:30.079Z,45.70
2023-03-13T09:18:59.484Z,46.10
2023-03-13T09:21:30.834Z,45.20
2023-03-13T09:23:59.452Z,44.60
2023-03-13T09:26:29.954Z,45.10
2023-03-13T09:28:58.455Z,44.20
2023-03-13T09:31:28.204Z,43.80
2023-03-13T09:33:56.822Z,44.20
2023-03-13T09:36:25.429Z,43.50
2023-03-13T09:38:54.509Z,43.40
2023-03-13T09:41:27.113Z,42.00
2023-03-13T09:44:03.001Z,41.30
2023-03-13T09:46:38.197Z,40.50
2023-03-13T09:49:13.791Z,41.40
2023-03-13T09:51:45.618Z,49.30
2023-03-13T09:54:23.270Z,42.50
2023-03-13T09:56:56.119Z,42.90
2023-03-13T09:59:34.029Z,41.40
2023-03-13T10:02:05.248Z,42.70
2023-03-13T10:07:12.647Z,66.80
2023-03-13T10:09:42.484Z,59.30
2023-03-13T10:12:19.801Z,41.50
2023-03-13T10:14:58.356Z,40.70
2023-03-13T10:17:33.020Z,38.90
2023-03-13T10:20:10.160Z,38.40
2023-03-13T10:22:39.106Z,36.80
2023-03-13T10:25:15.502Z,36.10
2023-03-13T10:27:51.001Z,36.80
2023-03-13T10:30:25.683Z,35.70
2023-03-13T10:32:56.115Z,35.90
2023-03-13T10:35:31.930Z,34.20
2023-03-13T10:40:31.872Z,60.90
2023-03-13T10:43:05.596Z,56.10
2023-03-13T10:45:37.755Z,40.10
2023-03-13T10:48:14.460Z,36.90
2023-03-13T10:50:45.034Z,37.40
2023-03-13T10:53:25.982Z,37.80
2023-03-13T10:58:34.402Z,60.20
2023-03-13T11:01:18.409Z,43.60
2023-03-13T11:03:48.119Z,39.30
2023-03-13T11:06:35.116Z,36.50
2023-03-13T11:09:14.082Z,36.40
2023-03-13T11:11:47.254Z,33.70
2023-03-13T11:14:17.956Z,33.40
2023-03-13T11:16:51.114Z,32.00
2023-03-13T11:22:18.989Z,33.40
2023-03-13T11:24:53.055Z,32.90
2023-03-13T11:30:13.082Z,50.50
2023-03-13T11:32:49.165Z,39.00
2023-03-13T11:35:27.668Z,37.00
2023-03-13T11:37:57.820Z,36.50
2023-03-13T11:40:32.957Z,33.80
2023-03-13T11:43:26.083Z,31.90
2023-03-13T11:46:16.220Z,32.80
2023-03-13T11:49:08.377Z,31.90
2023-03-13T11:51:45.338Z,33.30
2023-03-13T11:54:47.884Z,30.60
2023-03-13T11:57:23.518Z,36.80
2023-03-13T11:59:58.294Z,28.10
2023-03-13T12:02:29.250Z,25.30
2023-03-13T12:05:00.898Z,24.30
2023-03-13T12:07:35.255Z,22.60
2023-03-13T12:10:06.772Z,22.10
2023-03-13T12:12:40.764Z,22.50
2023-03-13T12:15:20.143Z,22.30
2023-03-13T12:17:53.063Z,22.20
2023-03-13T12:20:27.737Z,21.40
2023-03-13T12:23:02.024Z,21.00
2023-03-13T12:25:34.071Z,20.50
2023-03-13T12:28:12.840Z,20.20
2023-03-13T12:33:24.604Z,14.10
2023-03-13T12:36:03.241Z,15.60
2023-03-13T12:38:38.882Z,17.30
2023-03-13T12:41:18.868Z,19.60
2023-03-13T12:44:04.282Z,19.60
2023-03-13T12:46:43.531Z,22.50
2023-03-13T12:49:41.896Z,17.10
2023-03-13T12:52:51.506Z,19.70
2023-03-13T12:55:46.230Z,20.40
2023-03-13T12:58:39.680Z,8.40
2023-03-13T13:01:09.217Z,9.50
2023-03-13T13:03:40.711Z,8.90
2023-03-13T13:06:11.507Z,8.30
2023-03-13T13:08:42.566Z,6.60
2023-03-13T13:11:47.268Z,7.00
2023-03-13T13:14:55.438Z,6.40
2023-03-13T13:17:29.852Z,6.10
2023-03-13T13:19:58.290Z,5.00
2023-03-13T13:22:46.752Z,5.20
2023-03-13T13:25:35.085Z,4.90
2023-03-13T13:28:27.607Z,5.40
2023-03-13T13:30:57.253Z,5.20
2023-03-13T13:33:41.111Z,5.10
2023-03-13T13:36:32.256Z,5.20
2023-03-13T13:39:00.622Z,5.40
2023-03-13T13:41:38.716Z,4.90
2023-03-13T13:44:26.462Z,5.70
2023-03-13T13:46:56.485Z,5.60
2023-03-13T13:49:27.222Z,6.10
2023-03-13T13:52:41.117Z,5.00
2023-03-13T13:55:42.505Z,4.50
2023-03-13T13:58:15.428Z,4.50
2023-03-13T14:00:47.581Z,4.30
2023-03-13T14:03:22.803Z,4.40
2023-03-13T14:05:54.594Z,4.30
2023-03-13T14:11:04.927Z,37.50
2023-03-13T14:13:33.255Z,24.40
2023-03-13T14:16:24.321Z,23.50
2023-03-13T14:18:53.949Z,23.80
2023-03-13T14:21:23.932Z,24.00
2023-03-13T14:23:52.458Z,22.00
2023-03-13T14:26:22.796Z,23.10
2023-03-13T14:28:52.808Z,22.00
2023-03-13T14:31:30.294Z,22.90
2023-03-13T14:34:00.299Z,23.50
2023-03-13T14:36:28.831Z,22.80
2023-03-13T14:38:58.823Z,23.40
2023-03-13T14:41:31.453Z,24.00
2023-03-13T14:46:41.839Z,42.60
2023-03-13T14:49:17.781Z,42.90
2023-03-13T15:32:38.766Z,40.50
2023-03-13T15:35:27.320Z,27.00
2023-03-13T16:23:50.366Z,43.90
2023-03-13T17:31:17.479Z,22.60
2023-03-13T17:33:47.102Z,17.10
2023-03-13T17:38:50.252Z,38.10
2023-03-13T17:41:20.665Z,19.50
2023-03-13T17:43:49.085Z,18.10
2023-03-13T17:46:19.799Z,18.10
2023-03-13T17:48:50.830Z,17.60
2023-03-13T17:51:25.508Z,17.80
2023-03-13T17:53:54.948Z,18.40
2023-03-13T17:56:24.552Z,19.10
2023-03-13T17:58:55.135Z,18.60
2023-03-13T18:01:23.883Z,19.20
2023-03-13T18:06:24.370Z,39.70
2023-03-13T18:08:54.201Z,23.80
2023-03-13T18:11:23.985Z,22.30
2023-03-13T18:13:52.437Z,21.90
2023-03-13T18:16:26.008Z,22.00
2023-03-13T18:18:55.794Z,22.20
2023-03-13T18:21:25.321Z,23.00
2023-03-13T18:23:54.154Z,23.50
2023-03-13T18:26:28.117Z,23.90
2023-03-13T18:29:00.175Z,23.50
2023-03-13T18:31:35.299Z,24.40
2023-03-13T18:36:34.312Z,42.50
2023-03-13T18:39:02.651Z,35.20
2023-03-13T18:41:30.806Z,31.90
2023-03-13T18:43:58.863Z,31.90
2023-03-13T18:46:30.495Z,40.70
2023-03-13T18:55:00.091Z,94.40
2023-03-13T18:57:49.085Z,84.90
2023-03-13T19:00:37.802Z,88.10
2023-03-13T19:03:26.177Z,88.80
2023-03-13T19:06:24.650Z,90.50
2023-03-13T19:09:41.216Z,93.10
2023-03-13T19:15:14.660Z,98.20
2023-03-13T19:18:04.158Z,95.60
2023-03-13T19:20:52.577Z,94.20
2023-03-13T19:23:26.965Z,95.30
2023-03-13T19:25:56.909Z,93.80
2023-03-13T19:28:25.161Z,92.70
2023-03-13T19:30:53.217Z,94.10
2023-03-13T19:35:49.785Z,91.80
2023-03-13T19:40:47.610Z,91.80
2023-03-13T19:50:40.674Z,93.10
2023-03-13T19:55:37.117Z,94.50
2023-03-13T20:08:02.044Z,97.60
2023-03-13T20:10:30.193Z,98.90
2023-03-13T20:12:58.334Z,99.10
2023-03-13T20:15:27.782Z,99.90
2023-03-13T20:17:55.873Z,96.80
2023-03-13T20:20:23.902Z,96.10
2023-03-13T20:22:54.120Z,97.00
2023-03-13T20:25:24.098Z,95.50
2023-03-13T20:27:53.281Z,92.00
2023-03-13T20:32:59.661Z,82.80
2023-03-13T20:57:52.372Z,76.50
2023-03-13T21:00:23.666Z,76.40
2023-03-13T21:02:53.814Z,77.70
2023-03-13T21:05:23.338Z,79.70
2023-03-13T21:07:51.581Z,81.40
2023-03-13T21:10:20.203Z,82.40
2023-03-13T21:12:48.334Z,82.60
2023-03-13T21:15:16.645Z,82.30
2023-03-13T21:17:44.758Z,80.40
2023-03-13T21:20:13.628Z,76.30
2023-03-13T21:22:44.086Z,74.70
2023-03-13T21:25:13.191Z,77.30
2023-03-13T21:27:43.832Z,78.70
2023-03-13T21:30:14.413Z,78.70
2023-03-13T21:32:42.726Z,78.60
2023-03-13T21:35:11.365Z,78.90
2023-03-13T21:37:39.864Z,80.40
2023-03-13T21:40:13.724Z,81.10
2023-03-13T21:42:41.864Z,79.70
2023-03-13T21:45:11.584Z,78.90
2023-03-13T21:47:40.454Z,78.50
2023-03-13T21:50:11.688Z,79.50
2023-03-13T21:52:42.172Z,80.00
2023-03-13T21:55:13.656Z,80.50
2023-03-13T21:57:42.089Z,82.60
2023-03-13T22:00:13.923Z,83.70
2023-03-13T22:02:42.671Z,83.80
2023-03-13T22:05:11.100Z,85.40
2023-03-13T22:07:39.173Z,86.20
2023-03-13T22:10:07.986Z,86.00
2023-03-13T22:12:38.112Z,86.10
2023-03-13T22:15:07.337Z,86.10
2023-03-13T22:17:35.420Z,87.70
2023-03-13T22:20:04.150Z,88.50
2023-03-13T22:22:41.909Z,87.70
2023-03-13T22:25:10.583Z,87.80
2023-03-13T22:27:40.043Z,89.30
2023-03-13T22:30:09.399Z,90.90
2023-03-13T22:32:37.819Z,90.00
2023-03-13T22:35:07.089Z,88.10
2023-03-13T22:37:35.406Z,88.10
2023-03-13T22:40:03.522Z,88.50
2023-03-13T22:42:31.582Z,89.00
2023-03-13T22:45:00.985Z,88.90
2023-03-13T22:47:29.058Z,89.30
2023-03-13T22:49:57.148Z,88.70
2023-03-13T22:52:30.627Z,86.40
2023-03-13T22:54:58.778Z,84.30
2023-03-13T22:57:29.124Z,83.50
2023-03-13T22:59:59.146Z,85.10
2023-03-13T23:02:29.252Z,85.80
2023-03-13T23:04:58.568Z,88.00
2023-03-13T23:07:28.485Z,89.40
2023-03-13T23:09:56.951Z,89.20
2023-03-13T23:12:25.463Z,90.10
2023-03-13T23:14:54.517Z,91.20
2023-03-13T23:17:22.684Z,91.40
2023-03-13T23:19:52.126Z,91.00
2023-03-13T23:22:21.855Z,90.60
2023-03-13T23:24:50.004Z,90.90
2023-03-13T23:27:18.058Z,92.20
2023-03-13T23:29:46.071Z,90.70
2023-03-13T23:32:14.229Z,90.40
2023-03-13T23:34:42.299Z,91.40
2023-03-13T23:37:11.822Z,91.70
2023-03-13T23:39:39.912Z,92.00
2023-03-13T23:42:08.778Z,91.70
2023-03-13T23:44:36.951Z,92.00
2023-03-13T23:47:05.077Z,91.60
2023-03-13T23:49:33.162Z,92.50
2023-03-13T23:54:40.798Z,89.00
2023-03-13T23:57:08.832Z,89.60
2023-03-13T23:59:36.885Z,88.70
